Map

Track Data

SID SEASON NUMBER BASIN SUBBASIN NAME ISO_TIME NATURE LAT LON WMO_WIND WMO_PRES WMO_AGENCY TRACK_TYPE DIST2LAND LANDFALL IFLAG USA_AGENCY USA_ATCF_ID USA_LAT USA_LON USA_RECORD USA_STATUS USA_WIND USA_PRES USA_SSHS USA_R34_NE USA_R34_SE USA_R34_SW USA_R34_NW USA_R50_NE USA_R50_SE USA_R50_SW USA_R50_NW USA_R64_NE USA_R64_SE USA_R64_SW USA_R64_NW USA_POCI USA_ROCI USA_RMW USA_EYE TOKYO_LAT TOKYO_LON TOKYO_GRADE TOKYO_WIND TOKYO_PRES TOKYO_R50_DIR TOKYO_R50_LONG TOKYO_R50_SHORT TOKYO_R30_DIR TOKYO_R30_LONG TOKYO_R30_SHORT TOKYO_LAND CMA_LAT CMA_LON CMA_CAT CMA_WIND CMA_PRES HKO_LAT HKO_LON HKO_CAT HKO_WIND HKO_PRES NEWDELHI_LAT NEWDELHI_LON NEWDELHI_GRADE NEWDELHI_WIND NEWDELHI_PRES NEWDELHI_CI NEWDELHI_DP NEWDELHI_POCI REUNION_LAT REUNION_LON REUNION_TYPE REUNION_WIND REUNION_PRES REUNION_TNUM REUNION_CI REUNION_RMW REUNION_R34_NE REUNION_R34_SE REUNION_R34_SW REUNION_R34_NW REUNION_R50_NE REUNION_R50_SE REUNION_R50_SW REUNION_R50_NW REUNION_R64_NE REUNION_R64_SE REUNION_R64_SW REUNION_R64_NW BOM_LAT BOM_LON BOM_TYPE BOM_WIND BOM_PRES BOM_TNUM BOM_CI BOM_RMW BOM_R34_NE BOM_R34_SE BOM_R34_SW BOM_R34_NW BOM_R50_NE BOM_R50_SE BOM_R50_SW BOM_R50_NW BOM_R64_NE BOM_R64_SE BOM_R64_SW BOM_R64_NW BOM_ROCI BOM_POCI BOM_EYE BOM_POS_METHOD BOM_PRES_METHOD NADI_LAT NADI_LON NADI_CAT NADI_WIND NADI_PRES WELLINGTON_LAT WELLINGTON_LON WELLINGTON_WIND WELLINGTON_PRES DS824_LAT DS824_LON DS824_STAGE DS824_WIND DS824_PRES TD9636_LAT TD9636_LON TD9636_STAGE TD9636_WIND TD9636_PRES TD9635_LAT TD9635_LON TD9635_WIND TD9635_PRES TD9635_ROCI NEUMANN_LAT NEUMANN_LON NEUMANN_CLASS NEUMANN_WIND NEUMANN_PRES MLC_LAT MLC_LON MLC_CLASS MLC_WIND MLC_PRES USA_GUST BOM_GUST BOM_GUST_PER REUNION_GUST REUNION_GUST_PER USA_SEAHGT USA_SEARAD_NE USA_SEARAD_SE USA_SEARAD_SW USA_SEARAD_NW STORM_SPEED STORM_DIR
1963029S09089 1963 14 SI MM EMMA 1963-01-29 00:00:00 TS -9.00000 89.1000 main 1359 1359 ____________O_ -1 -9.00000 89.1000 TC 30 1 0
1963029S09089 1963 14 SI MM EMMA 1963-01-29 01:00:00 TS -9.01451 89.0895 1003 bom main 1359 1356 ______O___O_P_ -1 -9.00000 89.0000 1003 -9.00000 89.1000 1 -9.02901 89.1290 TC 29 2 149
1963029S09089 1963 14 SI MM EMMA 1963-01-29 03:00:00 TS -9.08990 89.1613 main 1356 1355 ______P___P_P_ -1 -9.09520 89.0951 1003 -9.08444 89.1843 1 -9.09000 89.1900 TC 27 3 135
1963029S09089 1963 14 SI MM EMMA 1963-01-29 06:00:00 TS -9.21168 89.2866 main 1355 1353 O_____P__OP_O_ jtwc_sh SH241963 -9.20000 89.3000 -1 -9.23604 89.2359 1003 -9.20000 89.3000 TC 25 -9.21067 89.3105 1 -9.20000 89.3000 TC 25 4 135
1963029S09089 1963 14 SI MM EMMA 1963-01-29 09:00:00 TS -9.35320 89.4281 main 1360 1350 P_____P__PP_P_ SH241963 -9.36252 89.4624 -1 -9.37195 89.3718 1003 -9.36252 89.4624 TC 25 -9.33584 89.4357 1 -9.34250 89.4425 TC 25 4 136
1963029S09089 1963 14 SI MM EMMA 1963-01-29 12:00:00 TS -9.49144 89.5651 1003 bom main 1350 1350 O_____O__OP_O_ jtwc_sh SH241963 -9.50000 89.6000 -1 -9.50000 89.5000 1003 -9.50000 89.6000 TC 25 -9.45932 89.5593 1 -9.50000 89.6000 TC 25 4 136
1963029S09089 1963 14 SI MM EMMA 1963-01-29 13:00:00 TS -9.53396 89.6067 main 1350 1349 P_____P__PO_P_ SH241963 -9.53641 89.6364 -1 -9.54048 89.5405 1003 -9.53641 89.6364 TC 25 -9.50000 89.6000 7 -9.55262 89.6526 TC 25 3 136
1963029S09089 1963 14 SI MM EMMA 1963-01-29 15:00:00 TS -9.61313 89.6827 main 1349 1348 P_____P__PP_P_ SH241963 -9.59998 89.7000 -1 -9.61858 89.6187 1003 -9.59998 89.7000 TC 25 -9.58069 89.6807 7 -9.65750 89.7575 TC 25 3 136
1963029S09089 1963 14 SI MM EMMA 1963-01-29 18:00:00 TS -9.73052 89.7972 main 1348 1347 O_____P__OP_O_ jtwc_sh SH241963 -9.70000 89.8000 -1 -9.73137 89.7315 1003 -9.70000 89.8000 TC 25 -9.70168 89.8018 7 -9.80000 89.9000 TC 25 3 136
1963029S09089 1963 14 SI MM EMMA 1963-01-29 21:00:00 TS -9.85730 89.9240 main 1354 1346 P_____P__PP_P_ SH241963 -9.85001 89.9500 -1 -9.84335 89.8435 1003 -9.85001 89.9500 TC 25 -9.82540 89.9255 7 -9.89998 90.0000 TC 25 4 135
1963029S09089 1963 14 SI WA EMMA 1963-01-30 00:00:00 TS -9.98574 90.0524 main 1346 1346 O_____P__OP_O_ jtwc_sh SH241963 -10.0000 90.1000 -1 -9.95950 89.9595 1003 -10.0000 90.1000 TC 25 -9.95497 90.0550 7 -10.0000 90.1000 TC 25 4 135
1963029S09089 1963 14 SI WA EMMA 1963-01-30 01:00:00 TS -10.0256 90.0923 1003 bom main 1346 1346 P_____O__PO_P_ SH241963 -10.0338 90.1338 -1 -10.0000 90.0000 1003 -10.0338 90.1338 TC 25 -10.0000 90.1000 7 -10.0443 90.1443 TC 25 3 136
1963029S09089 1963 14 SI WA EMMA 1963-01-30 03:00:00 TS -10.1064 90.1735 main 1346 1345 P_____P__PP_P_ SH241963 -10.0925 90.1926 -1 -10.0887 90.0887 1003 -10.0925 90.1926 TC 25 -10.0969 90.1995 7 -10.1425 90.2425 TC 25 4 135
1963029S09089 1963 14 SI WA EMMA 1963-01-30 06:00:00 TS -10.2376 90.3053 main 1345 1345 O_____P__OP_O_ jtwc_sh SH241963 -10.2000 90.3000 -1 -10.2268 90.2268 1003 -10.2000 90.3000 TC 25 -10.2487 90.3552 7 -10.3000 90.4000 TC 25 4 135
1963029S09089 1963 14 SI WA EMMA 1963-01-30 09:00:00 TS -10.4001 90.4681 main 1346 1346 P_____P__PP_P_ SH241963 -10.4000 90.4999 -1 -10.3657 90.3657 1003 -10.4000 90.4999 TC 25 -10.4025 90.5103 7 -10.4575 90.5575 TC 25 5 135
1963029S09089 1963 14 SI WA EMMA 1963-01-30 12:00:00 TS -10.5587 90.6259 1003 bom main 1355 1347 O_____O__OP_O_ jtwc_sh SH241963 -10.6000 90.7000 -1 -10.5000 90.5000 1003 -10.6000 90.7000 TC 25 -10.5521 90.6555 7 -10.6000 90.7000 TC 25 4 135
1963029S09089 1963 14 SI WA EMMA 1963-01-30 13:00:00 TS -10.6005 90.6706 main 1347 1347 P_____P__PO_P_ SH241963 -10.6421 90.7448 -1 -10.5405 90.5473 1003 -10.6421 90.7448 TC 25 -10.6000 90.7000 7 -10.6364 90.7391 TC 25 3 132
1963029S09089 1963 14 SI WA EMMA 1963-01-30 15:00:00 TS -10.6750 90.7513 main 1348 1348 P_____P__PP_P_ SH241963 -10.7075 90.8151 -1 -10.6186 90.6417 1003 -10.7075 90.8151 TC 25 -10.6916 90.7834 7 -10.7000 90.8075 TC 25 3 134
1963029S09089 1963 14 SI WA EMMA 1963-01-30 18:00:00 TS -10.7841 90.8599 main 1349 1349 O_____P__OP_O_ jtwc_sh SH241963 -10.8000 90.9000 -1 -10.7314 90.7763 1003 -10.8000 90.9000 TC 25 -10.8229 90.8959 7 -10.8000 90.9000 TC 25 3 139
1963029S09089 1963 14 SI WA EMMA 1963-01-30 21:00:00 TS -10.9192 90.9699 main 1350 1350 P_____P__PP_P_ SH241963 -10.9500 91.0075 -1 -10.8434 90.8926 1003 -10.9500 91.0075 TC 25 -10.9466 90.9934 7 -10.9500 91.0075 TC 27 3 145
1963029S09089 1963 14 SI WA EMMA 1963-01-31 00:00:00 TS -11.0537 91.0592 main 1360 1360 O_____P__OP_O_ jtwc_sh SH241963 -11.1000 91.1000 -1 -10.9595 90.9795 1003 -11.1000 91.1000 TC 25 -11.0629 91.0758 7 -11.1000 91.1000 TC 30 3 147
1963029S09089 1963 14 SI WA EMMA 1963-01-31 01:00:00 TS -11.0925 91.0811 1003 bom main 1360 1360 P_____O__PO_P_ SH241963 -11.1390 91.1224 -1 -11.0000 91.0000 1003 -11.1390 91.1224 TC 25 -11.1000 91.1000 1 -11.1390 91.1224 TC 29 3 153
1963029S09089 1963 14 SI WA EMMA 1963-01-31 03:00:00 TS -11.1654 91.1155 main 1369 1369 P_____P__PP_P_ SH241963 -11.2075 91.1575 -1 -11.0887 91.0236 1002 -11.2075 91.1575 TC 25 -11.1697 91.1526 1 -11.2075 91.1575 TC 27 2 159
1963029S09089 1963 14 SI WA EMMA 1963-01-31 06:00:00 TS -11.2700 91.1505 main 1371 1371 O_____P__OP_O_ jtwc_sh SH241963 -11.3000 91.2000 -1 -11.2267 91.0308 1002 -11.3000 91.2000 TC 25 -11.2680 91.2191 1 -11.3000 91.2000 TC 25 2 162
1963029S09089 1963 14 SI WA EMMA 1963-01-31 09:00:00 TS -11.3815 91.1822 main 1379 1379 P_____P__PP_P_ SH241963 -11.4075 91.2575 -1 -11.3657 91.0179 1002 -11.4075 91.2575 TC 25 -11.3642 91.2679 1 -11.3925 91.2575 TC 25 2 170
1963029S09089 1963 14 SI WA EMMA 1963-01-31 12:00:00 TS -11.4941 91.1993 1002 bom main 1388 1388 O_____O__OP_O_ jtwc_sh SH241963 -11.5000 91.3000 -1 -11.5000 91.0000 1002 -11.5000 91.3000 TC 25 -11.4645 91.2959 1 -11.5000 91.3000 TC 25 2 170
1963029S09089 1963 14 SI WA EMMA 1963-01-31 13:00:00 TS -11.5271 91.2043 main 1388 1388 P_____P__PO_P_ SH241963 -11.5171 91.3083 -1 -11.5268 91.0068 1001 -11.5171 91.3083 TC 25 -11.5000 91.3000 7 -11.5469 91.3083 TC 25 2 167
1963029S09089 1963 14 SI WA EMMA 1963-01-31 15:00:00 TS -11.5885 91.2082 main 1397 1397 P_____P__PP_P_ SH241963 -11.5425 91.3150 -1 -11.5725 91.0229 1001 -11.5425 91.3150 TC 25 -11.5514 91.3031 7 -11.6500 91.3150 TC 25 2 0
1963029S09089 1963 14 SI WA EMMA 1963-01-31 18:00:00 TS -11.6908 91.1964 main 1406 1406 O_____P__OP_O_ jtwc_sh SH241963 -11.6000 91.3000 -1 -11.6417 91.0445 1001 -11.6000 91.3000 TC 25 -11.6342 91.2888 7 -11.8000 91.3000 TC 25 2 187
1963029S09089 1963 14 SI WA EMMA 1963-01-31 21:00:00 TS -11.8105 91.1631 main 1415 1415 P_____P__PP_P_ SH241963 -11.7050 91.2575 -1 -11.7449 91.0489 1001 -11.7050 91.2575 TC 25 -11.7489 91.2575 7 -11.8700 91.2575 TC 27 3 194
1963029S09089 1963 14 SI WA EMMA 1963-02-01 00:00:00 TS -11.9957 91.1131 main 1439 1439 O_____P__OP_O_ jtwc_sh SH241963 -11.9000 91.2000 -1 -11.9195 91.0199 1001 -11.9000 91.2000 TC 25 -11.9236 91.2154 7 -12.0000 91.2000 TC 30 4 195
1963029S09089 1963 14 SI WA EMMA 1963-02-01 01:00:00 TS -12.0808 91.0953 1001 bom main 1448 1448 P_____O__PO_P_ SH241963 -11.9912 91.1833 -1 -12.0000 91.0000 1001 -11.9912 91.1833 TC 25 -12.0000 91.2000 1 -12.0855 91.1833 TC 30 6 190
1963029S09089 1963 14 SI WA EMMA 1963-02-01 03:00:00 TS -12.2895 91.0584 main 1466 1466 P_____P__PP_P_ SH241963 -12.2125 91.1500 -1 -12.2192 90.9350 1000 -12.2125 91.1500 TC 25 -12.1929 91.1906 1 -12.3050 91.1500 TC 30 7 189
1963029S09089 1963 14 SI WA EMMA 1963-02-01 06:00:00 TS -12.6570 90.9950 main 1509 1509 O_____P__OP_O_ jtwc_sh SH241963 -12.6000 91.1000 -1 -12.6189 90.8043 1000 -12.6000 91.1000 TC 25 -12.5452 91.1705 1 -12.7000 91.1000 TC 30 8 189
1963029S09089 1963 14 SI WA EMMA 1963-02-01 09:00:00 TS -13.0466 90.9271 main 1542 1542 P_____P__PP_P_ SH241963 -13.0000 91.0575 -1 -13.0616 90.6523 999 -13.0000 91.0575 TC 25 -12.9456 91.1270 1 -13.0925 91.0649 TC 32 8 191
1963029S09089 1963 14 SI WA EMMA 1963-02-01 12:00:00 TS -13.4438 90.8402 999 bom main 1585 1585 O_____O__OP_O_ jtwc_sh SH241963 -13.4000 91.0000 -1 -13.5000 90.5000 999 -13.4000 91.0000 TC 25 -13.3627 91.0412 1 -13.5000 91.0000 TC 35 8 191
1963029S09089 1963 14 SI WA EMMA 1963-02-01 13:00:00 TS -13.5693 90.8216 main 1603 1603 P_____P__PO_P_ SH241963 -13.5197 90.9828 -1 -13.6280 90.4931 998 -13.5197 90.9828 TC 25 -13.5000 91.0000 1 -13.6359 90.9693 TC 35 8 189
1963029S09089 1963 14 SI WA EMMA 1963-02-01 15:00:00 TS -13.8140 90.7828 main 1622 1622 P_____P__PP_P_ SH241963 -13.7499 90.9373 -1 -13.8778 90.4952 998 -13.7499 90.9373 TC 25 -13.7548 90.9368 1 -13.9075 90.8874 TC 37 8 193
1963029S09089 1963 14 SI WA EMMA 1963-02-01 18:00:00 TS -14.1796 90.6756 main 1665 1665 O_____P__OP_O_ jtwc_sh SH241963 -14.1000 90.8000 -1 -14.2370 90.4905 998 -14.1000 90.8000 TC 25 -14.1372 90.7988 1 -14.3000 90.7000 TC 40 8 201
1963029S09089 1963 14 SI WA EMMA 1963-02-01 21:00:00 TS -14.5503 90.4834 main 1714 1714 P_____P__PP_P_ SH241963 -14.4999 90.5674 -1 -14.5772 90.4007 997 -14.4999 90.5674 TC 30 -14.5146 90.5791 1 -14.6498 90.4672 TC 42 9 215
1963029S09089 1963 14 SI WA EMMA 1963-02-02 00:00:00 TS -14.9132 90.1472 main 1766 1766 O_____P__OP_O_ jtwc_sh SH241963 -14.9000 90.2000 -1 -14.8977 90.1399 997 -14.9000 90.2000 TC 35 -14.8812 90.2436 1 -15.0000 90.1000 TC 45 10 224
1963029S09089 1963 14 SI MM EMMA 1963-02-02 01:00:00 TS -15.0320 89.9988 997 bom main 1781 1781 P_____O__PO_P_ SH241963 -15.0250 90.0530 -1 -15.0000 90.0000 997 -15.0250 90.0530 TC 33 -15.0000 90.1000 2 -15.1355 89.9422 TC 45 12 234
1963029S09089 1963 14 SI MM EMMA 1963-02-02 03:00:00 TS -15.2659 89.6418 main 1833 1833 P_____P__PP_P_ SH241963 -15.2649 89.7099 -1 -15.1976 89.6297 996 -15.2649 89.7099 TC 30 -15.2439 89.7715 2 -15.4149 89.5676 TC 47 14 239
1963029S09089 1963 14 SI MM EMMA 1963-02-02 06:00:00 TS -15.6044 88.9976 main 1898 1898 O_____P__OP_O_ jtwc_sh SH241963 -15.6000 89.1000 -1 -15.4786 88.8852 996 -15.6000 89.1000 TC 25 -15.5973 89.1653 2 -15.8000 88.9000 TC 50 15 243
1963029S09089 1963 14 SI MM EMMA 1963-02-02 09:00:00 TS -15.9164 88.2946 main 1970 1970 P_____P__PP_P_ SH241963 -15.9147 88.4448 -1 -15.7445 87.9826 996 -15.9147 88.4448 TC 25 -15.9247 88.4535 2 -16.0798 88.1872 TC 52 15 247
1963029S09089 1963 14 SI MM EMMA 1963-02-02 12:00:00 TS -16.2031 87.5490 996 bom main 2049 2049 O_____O__OP_O_ jtwc_sh SH241963 -16.2000 87.7000 -1 -16.0000 87.0000 996 -16.2000 87.7000 TC 25 -16.2141 87.6707 2 -16.3000 87.4000 TC 55 15 246
1963029S09089 1963 14 SI MM EMMA 1963-02-02 13:00:00 TS -16.3203 87.3555 main 2064 2064 P________PO_P_ SH241963 -16.2942 87.4364 -1 -16.2942 87.4364 TC 25 -16.3000 87.4000 1 -16.3929 87.1493 TC 55 15 248
1963029S09089 1963 14 SI MM EMMA 1963-02-02 15:00:00 TS -16.4927 86.8055 main 2122 2122 P________PP_P_ SH241963 -16.4723 86.8799 -1 -16.4723 86.8799 TC 25 -16.4597 86.8365 1 -16.5665 86.6256 TC 57 14 276
1963029S09089 1963 14 SI MM EMMA 1963-02-02 18:00:00 TS -16.2024 86.1150 main 2146 2146 O________OP_O_ jtwc_sh SH241963 -16.7000 86.0000 -1 -16.7000 86.0000 TC 25 -16.6612 85.9463 1 -16.7000 85.7000 TC 60 15 283
1963029S09089 1963 14 SI MM EMMA 1963-02-02 21:00:00 TS -16.1415 85.2417 main 2203 2203 P________PP_P_ SH241963 -16.8728 85.0549 -1 -16.8728 85.0549 TC 25 -16.8247 85.0606 1 -16.5013 84.4406 TC 60 17 268
1963029S09089 1963 14 SI MM EMMA 1963-02-03 00:00:00 TS -16.2515 84.3746 main 2280 2280 O________OP_O_ jtwc_sh SH241963 -17.0000 84.2000 -1 -17.0000 84.2000 TC 25 -16.9596 84.2450 1 -16.3000 83.2000 TC 60 16 263
1963029S09089 1963 14 SI MM EMMA 1963-02-03 01:00:00 TS -16.2606 84.1636 main 2295 2295 P________PO_P_ SH241963 -17.0387 83.9713 -1 -17.0387 83.9713 TC 25 -17.0000 84.0000 1 -16.3229 82.8825 TC 60 15 252
1963029S09089 1963 14 SI MM EMMA 1963-02-03 03:00:00 TS -16.4760 83.6385 main 2357 2357 P________PP_P_ SH241963 -17.1069 83.5823 -1 -17.1069 83.5823 TC 25 -17.0792 83.6122 1 -16.4463 82.3333 TC 60 15 248
1963029S09089 1963 14 SI MM EMMA 1963-02-03 06:00:00 TS -16.7400 82.9314 main 2427 2427 O________OP_O_ jtwc_sh SH241963 -17.2000 83.1000 -1 -17.2000 83.1000 TC 25 -17.1803 83.1199 1 -16.7000 81.6000 TC 60 14 251
1963029S09089 1963 14 SI MM EMMA 1963-02-03 09:00:00 TS -16.9234 82.2701 main 2489 2489 P________PP_P_ SH241963 -17.2996 82.6649 -1 -17.2996 82.6649 TC 25 -17.2719 82.6684 1 -16.8647 80.7999 TC 60 13 256
1963029S09089 1963 14 SI MM EMMA 1963-02-03 12:00:00 TS -17.0540 81.6169 main 2530 2509 O________OP_O_ jtwc_sh SH241963 -17.4000 82.2000 -1 -17.4000 82.2000 TC 25 -17.3660 82.1826 1 -17.0000 80.0000 TC 60 13 258
1963029S09089 1963 14 SI MM EMMA 1963-02-03 13:00:00 TS -17.0954 81.3863 main 2509 2465 P________PO_P_ SH241963 -17.4306 82.0140 -1 -17.4306 82.0140 TC 25 -17.4000 82.0000 1 -17.0362 79.7332 TC 60 14 260
1963029S09089 1963 14 SI MM EMMA 1963-02-03 15:00:00 TS -17.1723 80.9088 main 2454 2369 P________PP_P_ SH241963 -17.4923 81.6023 -1 -17.4923 81.6023 TC 25 -17.4735 81.5924 1 -17.0997 79.1997 TC 60 15 262
1963029S09089 1963 14 SI MM EMMA 1963-02-03 18:00:00 TS -17.2607 80.0985 main 2369 2275 O________OP_O_ jtwc_sh SH241963 -17.6000 80.9000 -1 -17.6000 80.9000 TC 25 -17.5947 80.8900 1 -17.2000 78.4000 TC 60 17 264
1963029S09089 1963 14 SI MM EMMA 1963-02-03 21:00:00 TS -17.3432 79.1750 main 2275 2180 P________PP_P_ SH241963 -17.7939 80.1907 -1 -17.7407 80.1204 TC 25 -17.7241 80.1081 1 -17.3503 77.5327 TC 60 18 265
1963029S09089 1963 14 SI MM EMMA 1963-02-04 00:00:00 TS -17.4089 78.2296 main 2169 2138 O________OP_O_ jtwc_sh SH241963 -17.9000 79.3000 -1 -17.9000 79.3000 TC 25 -17.8562 79.2803 1 -17.5000 76.8000 TC 60 20 269
1963029S09089 1963 14 SI MM EMMA 1963-02-04 01:00:00 TS -17.3674 77.7862 main 2128 2076 P_________O_P_ SH241963 -17.8586 78.8920 -1 TC -17.9000 79.0000 1 -17.5361 76.6292 TC 60 19 269
1963029S09089 1963 14 SI MM EMMA 1963-02-04 03:00:00 TS -17.4210 77.2334 main 2065 2011 P___________P_ SH241963 -17.7096 77.9958 -1 TC 1 -17.5995 76.3748 TC 60 13 261
1963029S09089 1963 14 SI MM EMMA 1963-02-04 06:00:00 TS -17.5500 76.6250 main 2001 1955 O___________O_ jtwc_sh SH261963 -17.5000 76.8000 -1 1 -17.7000 76.1000 TC 60 11 256
1963029S09089 1963 14 SI MM EMMA 1963-02-04 09:00:00 TS -17.6720 76.1606 main 1955 1911 P___________P_ SH261963 -17.5463 76.1932 -1 1 -17.8574 75.7925 TC 60 8 253
1963029S09089 1963 14 SI MM EMMA 1963-02-04 12:00:00 TS -17.7907 75.8230 main 1911 1888 O___________O_ jtwc_sh SH261963 -17.7000 75.9000 -1 1 -18.0000 75.5000 TC 60 6 247
1963029S09089 1963 14 SI MM EMMA 1963-02-04 15:00:00 TS -17.9150 75.5664 main 1888 1865 P___________P_ SH261963 -17.8573 75.6700 -1 -18.0575 75.1924 TC 60 5 242
1963029S09089 1963 14 SI MM EMMA 1963-02-04 18:00:00 TS -18.0250 75.3500 main 1865 1832 O___________O_ jtwc_sh SH261963 -18.0000 75.5000 -1 -18.1000 74.9000 TC 60 5 248
1963029S09089 1963 14 SI MM EMMA 1963-02-04 21:00:00 TS -18.0931 75.1024 main 1832 1809 P___________P_ SH261963 -18.0575 75.2649 -1 -18.1849 74.6574 TC 60 5 255
1963029S09089 1963 14 SI MM EMMA 1963-02-05 00:00:00 TS -18.1586 74.8392 main 1799 1778 O___________O_ jtwc_sh SH261963 -18.1000 75.0000 -1 -18.3000 74.4000 TC 60 6 253
1963029S09089 1963 14 SI MM EMMA 1963-02-05 03:00:00 TS -18.2522 74.5457 main 1766 1732 P___________P_ SH261963 -18.1849 74.7150 -1 -18.4350 74.0650 TC 60 6 250
1963029S09089 1963 14 SI MM EMMA 1963-02-05 06:00:00 TS -18.3750 74.2250 main 1732 1699 O___________O_ jtwc_sh SH261963 -18.3000 74.4000 -1 -18.6000 73.7000 TC 60 7 246
1963029S09089 1963 14 SI MM EMMA 1963-02-05 09:00:00 TS -18.5261 73.8841 main 1699 1665 P___________P_ SH261963 -18.4350 74.0574 -1 -18.7924 73.3500 TC 60 7 244
1963029S09089 1963 14 SI MM EMMA 1963-02-05 12:00:00 TS -18.7031 73.5306 main 1654 1620 O___________O_ jtwc_sh SH261963 -18.6000 73.7000 -1 -19.0000 73.0000 TC 60 8 241
1963029S09089 1963 14 SI MM EMMA 1963-02-05 15:00:00 TS -18.8966 73.1780 main 1620 1575 P___________P_ SH261963 -18.7924 73.3500 -1 -19.1999 72.6499 TC 60 8 239
1963029S09089 1963 14 SI MM EMMA 1963-02-05 18:00:00 TS -19.1000 72.8250 main 1575 1541 O___________O_ jtwc_sh SH261963 -19.0000 73.0000 -1 -19.4000 72.3000 TC 60 8 239
1963029S09089 1963 14 SI MM EMMA 1963-02-05 21:00:00 TS -19.2991 72.4788 main 1541 1497 P___________P_ SH261963 -19.1999 72.6499 -1 -19.5999 71.9574 TC 60 8 239
1963029S09089 1963 14 SI MM EMMA 1963-02-06 00:00:00 TS -19.4999 72.1287 main 1497 1463 O___________O_ jtwc_sh SH261963 -19.4000 72.3000 -1 -19.8000 71.6000 TC 60 8 239
1963029S09089 1963 14 SI MM EMMA 1963-02-06 03:00:00 TS -19.7063 71.7679 main 1463 1420 P___________P_ SH261963 -19.6074 71.9500 -1 -20.0075 71.2075 TC 60 8 240
1963029S09089 1963 14 SI MM EMMA 1963-02-06 06:00:00 TS -19.9000 71.4000 main 1420 1388 O___________O_ jtwc_sh SH261963 -19.8000 71.6000 -1 -20.2000 70.8000 TC 60 8 243
1963029S09089 1963 14 SI MM EMMA 1963-02-06 09:00:00 TS -20.0519 71.0435 main 1377 1345 P___________P_ SH261963 -19.9498 71.2648 -1 -20.3423 70.4147 TC 60 8 246
1963029S09089 1963 14 SI MM EMMA 1963-02-06 12:00:00 TS -20.2067 70.6610 main 1345 1292 O___________O_ jtwc_sh SH261963 -20.1000 70.9000 -1 -20.5000 70.0000 TC 60 8 246
1963029S09089 1963 14 SI MM EMMA 1963-02-06 15:00:00 TS -20.3993 70.2239 main 1292 1250 P___________P_ SH261963 -20.2849 70.4724 -1 -20.7275 69.5149 TC 55 10 244
1963029S09089 1963 14 SI MM EMMA 1963-02-06 18:00:00 TS -20.6250 69.7500 main 1250 1198 O___________O_ jtwc_sh SH261963 -20.5000 70.0000 -1 -21.0000 69.0000 TC 50 10 242
1963029S09089 1963 14 SI MM EMMA 1963-02-06 21:00:00 TS -20.8761 69.2608 main 1198 1147 P___________P_ SH261963 -20.7349 69.5074 -1 -21.2924 68.4999 TC 45 11 240
1963029S09089 1963 14 SI MM EMMA 1963-02-07 00:00:00 TS -21.1531 68.7575 main 1147 1097 O___________O_ jtwc_sh SH261963 -21.0000 69.0000 -1 -21.6000 68.0000 TC 40 11 239
1963029S09089 1963 14 SI MM EMMA 1963-02-07 03:00:00 TS -21.4465 68.2539 main 1097 1049 P___________P_ SH261963 -21.2924 68.4999 -1 -21.8998 67.4998 TC 37 11 236
1963029S09089 1963 14 SI MM EMMA 1963-02-07 06:00:00 TS -21.7529 67.8000 reunion main 1050 1013 O____O______O_ jtwc_sh SH261963 -21.6000 68.0000 -1 -21.8000 68.6000 2 9.90000 -22.2000 67.0000 TC 35 10 232
1963029S09089 1963 14 SI MM EMMA 1963-02-07 09:00:00 TS -22.0716 67.3879 main 1014 980 P____P______P_ SH261963 -21.8998 67.4998 -1 -22.3000 68.5101 2 -22.4923 66.4997 TC 35 10 228
1963029S09089 1963 14 SI MM EMMA 1963-02-07 12:00:00 TS -22.4147 67.0072 reunion main 980 958 O____O______O_ jtwc_sh SH261963 -22.2000 67.0000 -1 -22.8000 68.4000 99 9.90000 -22.8000 66.0000 TC 35 10 224
1963029S09089 1963 14 SI MM EMMA 1963-02-07 15:00:00 TS -22.7788 66.6453 main 951 922 P____P______P_ SH261963 -22.4923 66.4997 -1 -23.3000 68.2575 99 -23.1350 65.4849 TC 35 10 225
1963029S09089 1963 14 SI MM EMMA 1963-02-07 18:00:00 TS -23.1400 66.2200 reunion main 922 899 O____O______O_ jtwc_sh SH261963 -22.8000 66.0000 -1 -23.8000 68.1000 99 9.90000 -23.5000 65.0000 TC 35 11 228
1963029S09089 1963 14 SI MM EMMA 1963-02-07 21:00:00 TS -23.5077 65.7797 main 899 874 P____P______P_ SH261963 -23.1350 65.4849 -1 -24.2999 67.9721 99 -23.8551 64.5252 TC 35 11 225
1963029S09089 1963 14 SI MM EMMA 1963-02-08 00:00:00 TS -23.9107 65.3786 reunion main 878 861 O____O______O_ jtwc_sh SH261963 -23.5000 65.0000 -1 -24.8000 67.8000 99 9.90000 -24.3000 64.2000 TC 35 11 219
1963029S09089 1963 14 SI MM EMMA 1963-02-08 03:00:00 TS -24.3588 65.0207 main 867 863 P____P______P_ SH261963 -23.8626 64.5252 -1 -25.3076 67.5152 99 -24.9196 64.0803 TC 32 11 209
1963029S09089 1963 14 SI MM EMMA 1963-02-08 06:00:00 TS -24.8600 64.8000 reunion main 878 878 O____O______O_ jtwc_sh SH261963 -24.3000 64.2000 -1 -25.8000 67.2000 2 9.90000 -25.6000 64.2000 TC 30 11 193
1963029S09089 1963 14 SI MM EMMA 1963-02-08 09:00:00 TS -25.4325 64.7539 main 909 909 P____P______P_ SH261963 -24.8621 64.0803 -1 -26.2649 66.9422 2 -26.2525 64.5168 TC 27 12 176
1963029S09089 1963 14 SI MM EMMA 1963-02-08 12:00:00 TS -26.0201 64.8778 reunion main 957 957 O____O______O_ jtwc_sh SH261963 -25.5000 64.2000 -1 -26.7000 66.7000 99 9.90000 -26.8000 65.0000 TC 25 12 164
1963029S09089 1963 14 SI MM EMMA 1963-02-08 15:00:00 TS -26.5795 65.1204 main 1015 1015 P____P______P_ SH261963 -26.1951 64.5240 -1 -27.0775 66.4496 99 -27.1749 65.5202 TC 25 11 154
1963029S09089 1963 14 SI MM EMMA 1963-02-08 18:00:00 TS -27.0421 65.4263 reunion main 1067 1067 O____O______O_ jtwc_sh SH261963 -26.8000 65.0000 -1 -27.5000 66.2000 99 9.90000 -27.4000 66.1000 TC 25 10 148
1963029S09089 1963 14 SI MM EMMA 1963-02-08 21:00:00 TS -27.4171 65.7155 main 1119 1119 P____P______P_ SH261963 -27.1822 65.4629 -1 -28.0775 65.9426 99 -27.5255 66.6974 TC 25 9 141
1963029S09089 1963 14 SI MM EMMA 1963-02-09 00:00:00 TS -27.7149 66.0463 reunion main 1163 1163 O____O______O_ jtwc_sh SH261963 -27.4000 66.0000 -1 -28.7000 65.7000 99 9.90000 -27.6000 67.3000 TC 25 8 134
1963029S09089 1963 14 SI MM EMMA 1963-02-09 03:00:00 TS -27.9603 66.3533 main 1215 1215 P____P________ SH261963 -27.5233 66.6248 -1 -29.2700 65.4902 99 TC 8 123
1963029S09089 1963 14 SI MM EMMA 1963-02-09 06:00:00 TS -28.1500 66.8000 reunion main 1252 O____O________ jtwc_sh SH261963 -27.6000 67.3000 -1 -29.8000 65.3000 2 9.90000 9 116

About IBTrACS Database

This database is a web-friendly format of International Best Track Archive for Climate Stewardship (IBTrACS), a global best track data archive curated by NOAA dating back to 1842.

Updated: 2021-11-26